sensor_id;sensor_type;location;lat;lon;timestamp;P1;durP1;ratioP1;P2;durP2;ratioP2
52102;SDS011;38101;53.126;6.878;2023-03-29T00:01:12;5.05;;;2.97;;
52102;SDS011;38101;53.126;6.878;2023-03-29T00:03:37;5.55;;;2.72;;
52102;SDS011;38101;53.126;6.878;2023-03-29T00:06:04;5.05;;;2.80;;
52102;SDS011;38101;53.126;6.878;2023-03-29T00:08:31;4.43;;;2.95;;
52102;SDS011;38101;53.126;6.878;2023-03-29T00:11:02;4.05;;;2.67;;
52102;SDS011;38101;53.126;6.878;2023-03-29T00:13:28;4.90;;;3.38;;
52102;SDS011;38101;53.126;6.878;2023-03-29T00:15:53;6.13;;;3.10;;
52102;SDS011;38101;53.126;6.878;2023-03-29T00:18:20;6.32;;;3.20;;
52102;SDS011;38101;53.126;6.878;2023-03-29T00:20:53;5.13;;;3.08;;
52102;SDS011;38101;53.126;6.878;2023-03-29T00:23:20;5.57;;;3.45;;
52102;SDS011;38101;53.126;6.878;2023-03-29T00:25:46;6.20;;;3.78;;
52102;SDS011;38101;53.126;6.878;2023-03-29T00:28:12;4.95;;;2.92;;
52102;SDS011;38101;53.126;6.878;2023-03-29T00:30:39;6.45;;;4.25;;
52102;SDS011;38101;53.126;6.878;2023-03-29T00:33:04;5.80;;;3.30;;
52102;SDS011;38101;53.126;6.878;2023-03-29T00:35:31;4.40;;;3.00;;
52102;SDS011;38101;53.126;6.878;2023-03-29T00:37:57;7.00;;;3.45;;
52102;SDS011;38101;53.126;6.878;2023-03-29T00:40:23;6.80;;;3.00;;
52102;SDS011;38101;53.126;6.878;2023-03-29T00:42:48;6.32;;;3.38;;
52102;SDS011;38101;53.126;6.878;2023-03-29T00:45:15;4.82;;;3.15;;
52102;SDS011;38101;53.126;6.878;2023-03-29T00:47:56;5.13;;;3.40;;
52102;SDS011;38101;53.126;6.878;2023-03-29T00:50:37;6.60;;;3.40;;
52102;SDS011;38101;53.126;6.878;2023-03-29T00:55:50;5.13;;;3.30;;
52102;SDS011;38101;53.126;6.878;2023-03-29T00:58:32;5.63;;;3.67;;
52102;SDS011;38101;53.126;6.878;2023-03-29T01:01:03;6.18;;;3.47;;
52102;SDS011;38101;53.126;6.878;2023-03-29T01:03:42;7.63;;;3.35;;
52102;SDS011;38101;53.126;6.878;2023-03-29T01:06:14;6.18;;;3.25;;
52102;SDS011;38101;53.126;6.878;2023-03-29T01:08:52;5.03;;;3.67;;
52102;SDS011;38101;53.126;6.878;2023-03-29T01:11:26;7.35;;;3.97;;
52102;SDS011;38101;53.126;6.878;2023-03-29T01:14:02;4.70;;;3.55;;
52102;SDS011;38101;53.126;6.878;2023-03-29T01:16:31;4.97;;;3.28;;
52102;SDS011;38101;53.126;6.878;2023-03-29T01:19:00;5.00;;;3.35;;
52102;SDS011;38101;53.126;6.878;2023-03-29T01:21:40;6.82;;;3.67;;
52102;SDS011;38101;53.126;6.878;2023-03-29T01:24:23;5.72;;;3.45;;
52102;SDS011;38101;53.126;6.878;2023-03-29T01:29:46;6.13;;;3.80;;
52102;SDS011;38101;53.126;6.878;2023-03-29T01:32:22;6.63;;;3.60;;
52102;SDS011;38101;53.126;6.878;2023-03-29T01:38:05;6.13;;;3.67;;
52102;SDS011;38101;53.126;6.878;2023-03-29T01:40:39;4.60;;;3.77;;
52102;SDS011;38101;53.126;6.878;2023-03-29T01:45:55;7.70;;;4.10;;
52102;SDS011;38101;53.126;6.878;2023-03-29T01:48:57;5.18;;;3.80;;
52102;SDS011;38101;53.126;6.878;2023-03-29T01:54:20;6.45;;;4.20;;
52102;SDS011;38101;53.126;6.878;2023-03-29T01:56:49;6.00;;;3.88;;
52102;SDS011;38101;53.126;6.878;2023-03-29T01:59:17;5.90;;;3.88;;
52102;SDS011;38101;53.126;6.878;2023-03-29T02:01:50;7.35;;;4.57;;
52102;SDS011;38101;53.126;6.878;2023-03-29T02:04:21;5.72;;;4.15;;
52102;SDS011;38101;53.126;6.878;2023-03-29T02:06:53;7.30;;;4.20;;
52102;SDS011;38101;53.126;6.878;2023-03-29T02:09:21;5.68;;;3.95;;
52102;SDS011;38101;53.126;6.878;2023-03-29T02:11:48;6.97;;;4.22;;
52102;SDS011;38101;53.126;6.878;2023-03-29T02:14:15;6.80;;;4.10;;
52102;SDS011;38101;53.126;6.878;2023-03-29T02:16:41;6.07;;;4.22;;
52102;SDS011;38101;53.126;6.878;2023-03-29T02:19:07;6.05;;;3.90;;
52102;SDS011;38101;53.126;6.878;2023-03-29T02:21:39;6.28;;;4.00;;
52102;SDS011;38101;53.126;6.878;2023-03-29T02:24:19;6.72;;;3.97;;
52102;SDS011;38101;53.126;6.878;2023-03-29T02:26:48;7.15;;;4.32;;
52102;SDS011;38101;53.126;6.878;2023-03-29T02:29:14;6.35;;;4.70;;
52102;SDS011;38101;53.126;6.878;2023-03-29T02:31:41;6.72;;;4.05;;
52102;SDS011;38101;53.126;6.878;2023-03-29T02:34:13;8.77;;;4.88;;
52102;SDS011;38101;53.126;6.878;2023-03-29T02:36:50;7.82;;;4.78;;
52102;SDS011;38101;53.126;6.878;2023-03-29T02:39:20;8.13;;;4.63;;
52102;SDS011;38101;53.126;6.878;2023-03-29T02:41:49;8.05;;;4.55;;
52102;SDS011;38101;53.126;6.878;2023-03-29T02:44:17;7.63;;;4.72;;
52102;SDS011;38101;53.126;6.878;2023-03-29T02:46:46;7.43;;;4.43;;
52102;SDS011;38101;53.126;6.878;2023-03-29T02:49:18;8.20;;;5.28;;
52102;SDS011;38101;53.126;6.878;2023-03-29T02:51:44;7.25;;;4.78;;
52102;SDS011;38101;53.126;6.878;2023-03-29T02:54:16;8.35;;;5.13;;
52102;SDS011;38101;53.126;6.878;2023-03-29T02:56:48;7.40;;;4.93;;
52102;SDS011;38101;53.126;6.878;2023-03-29T02:59:19;7.78;;;4.88;;
52102;SDS011;38101;53.126;6.878;2023-03-29T03:01:46;8.50;;;5.53;;
52102;SDS011;38101;53.126;6.878;2023-03-29T03:04:13;6.72;;;5.18;;
52102;SDS011;38101;53.126;6.878;2023-03-29T03:06:39;8.38;;;5.40;;
52102;SDS011;38101;53.126;6.878;2023-03-29T03:09:05;7.00;;;5.63;;
52102;SDS011;38101;53.126;6.878;2023-03-29T03:11:32;8.55;;;5.75;;
52102;SDS011;38101;53.126;6.878;2023-03-29T03:13:58;10.23;;;6.15;;
52102;SDS011;38101;53.126;6.878;2023-03-29T03:16:24;8.00;;;5.47;;
52102;SDS011;38101;53.126;6.878;2023-03-29T03:18:50;8.70;;;5.65;;
52102;SDS011;38101;53.126;6.878;2023-03-29T03:21:19;8.38;;;5.90;;
52102;SDS011;38101;53.126;6.878;2023-03-29T03:23:45;8.48;;;6.15;;
52102;SDS011;38101;53.126;6.878;2023-03-29T03:26:12;11.07;;;6.28;;
52102;SDS011;38101;53.126;6.878;2023-03-29T03:28:39;9.45;;;6.15;;
52102;SDS011;38101;53.126;6.878;2023-03-29T03:31:06;10.05;;;6.55;;
52102;SDS011;38101;53.126;6.878;2023-03-29T03:33:32;10.05;;;6.63;;
52102;SDS011;38101;53.126;6.878;2023-03-29T03:35:58;10.50;;;6.53;;
52102;SDS011;38101;53.126;6.878;2023-03-29T03:38:30;9.90;;;6.60;;
52102;SDS011;38101;53.126;6.878;2023-03-29T03:40:57;12.23;;;7.03;;
52102;SDS011;38101;53.126;6.878;2023-03-29T03:43:23;11.80;;;7.38;;
52102;SDS011;38101;53.126;6.878;2023-03-29T03:45:49;11.30;;;7.88;;
52102;SDS011;38101;53.126;6.878;2023-03-29T03:48:16;11.80;;;7.43;;
52102;SDS011;38101;53.126;6.878;2023-03-29T03:50:52;12.32;;;7.38;;
52102;SDS011;38101;53.126;6.878;2023-03-29T03:53:22;11.88;;;7.55;;
52102;SDS011;38101;53.126;6.878;2023-03-29T03:55:52;12.77;;;7.85;;
52102;SDS011;38101;53.126;6.878;2023-03-29T03:58:20;11.40;;;7.78;;
52102;SDS011;38101;53.126;6.878;2023-03-29T04:00:46;10.95;;;7.90;;
52102;SDS011;38101;53.126;6.878;2023-03-29T04:03:13;12.25;;;8.63;;
52102;SDS011;38101;53.126;6.878;2023-03-29T04:05:39;11.77;;;8.43;;
52102;SDS011;38101;53.126;6.878;2023-03-29T04:08:06;12.73;;;8.52;;
52102;SDS011;38101;53.126;6.878;2023-03-29T04:10:33;12.85;;;9.25;;
52102;SDS011;38101;53.126;6.878;2023-03-29T04:12:59;13.30;;;9.50;;
52102;SDS011;38101;53.126;6.878;2023-03-29T04:15:29;14.10;;;9.13;;
52102;SDS011;38101;53.126;6.878;2023-03-29T04:17:56;12.77;;;9.43;;
52102;SDS011;38101;53.126;6.878;2023-03-29T04:20:23;12.65;;;8.82;;
52102;SDS011;38101;53.126;6.878;2023-03-29T04:22:49;13.07;;;8.90;;
52102;SDS011;38101;53.126;6.878;2023-03-29T04:25:16;14.07;;;9.52;;
52102;SDS011;38101;53.126;6.878;2023-03-29T04:27:42;13.65;;;9.20;;
52102;SDS011;38101;53.126;6.878;2023-03-29T04:30:08;13.18;;;8.75;;
52102;SDS011;38101;53.126;6.878;2023-03-29T04:32:35;13.68;;;8.93;;
52102;SDS011;38101;53.126;6.878;2023-03-29T04:35:01;12.85;;;9.13;;
52102;SDS011;38101;53.126;6.878;2023-03-29T04:37:29;11.98;;;8.00;;
52102;SDS011;38101;53.126;6.878;2023-03-29T04:39:55;12.27;;;9.23;;
52102;SDS011;38101;53.126;6.878;2023-03-29T04:42:24;14.38;;;9.18;;
52102;SDS011;38101;53.126;6.878;2023-03-29T04:44:51;13.93;;;9.43;;
52102;SDS011;38101;53.126;6.878;2023-03-29T04:47:17;14.35;;;9.10;;
52102;SDS011;38101;53.126;6.878;2023-03-29T04:49:43;12.90;;;8.45;;
52102;SDS011;38101;53.126;6.878;2023-03-29T04:52:09;11.35;;;8.52;;
52102;SDS011;38101;53.126;6.878;2023-03-29T04:54:35;13.75;;;9.20;;
52102;SDS011;38101;53.126;6.878;2023-03-29T04:57:02;14.50;;;9.90;;
52102;SDS011;38101;53.126;6.878;2023-03-29T04:59:32;14.15;;;9.15;;
52102;SDS011;38101;53.126;6.878;2023-03-29T05:01:58;12.75;;;8.98;;
52102;SDS011;38101;53.126;6.878;2023-03-29T05:04:26;14.25;;;8.80;;
52102;SDS011;38101;53.126;6.878;2023-03-29T05:06:52;12.63;;;8.70;;
52102;SDS011;38101;53.126;6.878;2023-03-29T05:09:19;14.27;;;9.68;;
52102;SDS011;38101;53.126;6.878;2023-03-29T05:11:46;12.43;;;9.13;;
52102;SDS011;38101;53.126;6.878;2023-03-29T05:14:12;13.10;;;8.85;;
52102;SDS011;38101;53.126;6.878;2023-03-29T05:16:38;14.82;;;9.20;;
52102;SDS011;38101;53.126;6.878;2023-03-29T05:19:05;14.68;;;9.38;;
52102;SDS011;38101;53.126;6.878;2023-03-29T05:21:30;13.73;;;8.63;;
52102;SDS011;38101;53.126;6.878;2023-03-29T05:23:57;15.48;;;8.88;;
52102;SDS011;38101;53.126;6.878;2023-03-29T05:26:23;13.40;;;9.15;;
52102;SDS011;38101;53.126;6.878;2023-03-29T05:28:49;11.15;;;9.00;;
52102;SDS011;38101;53.126;6.878;2023-03-29T05:31:15;20.98;;;10.82;;
52102;SDS011;38101;53.126;6.878;2023-03-29T05:33:41;13.32;;;9.57;;
52102;SDS011;38101;53.126;6.878;2023-03-29T05:36:08;14.50;;;8.90;;
52102;SDS011;38101;53.126;6.878;2023-03-29T05:38:37;12.98;;;9.82;;
52102;SDS011;38101;53.126;6.878;2023-03-29T05:41:04;15.10;;;10.27;;
52102;SDS011;38101;53.126;6.878;2023-03-29T05:43:30;13.70;;;9.20;;
52102;SDS011;38101;53.126;6.878;2023-03-29T05:45:57;14.55;;;9.45;;
52102;SDS011;38101;53.126;6.878;2023-03-29T05:48:23;14.32;;;9.40;;
52102;SDS011;38101;53.126;6.878;2023-03-29T05:50:50;14.05;;;9.98;;
52102;SDS011;38101;53.126;6.878;2023-03-29T05:53:18;14.95;;;9.48;;
52102;SDS011;38101;53.126;6.878;2023-03-29T05:55:45;13.32;;;8.38;;
52102;SDS011;38101;53.126;6.878;2023-03-29T05:58:12;13.68;;;9.23;;
52102;SDS011;38101;53.126;6.878;2023-03-29T06:00:39;13.30;;;9.70;;
52102;SDS011;38101;53.126;6.878;2023-03-29T06:03:06;13.60;;;9.18;;
52102;SDS011;38101;53.126;6.878;2023-03-29T06:05:35;14.02;;;9.63;;
52102;SDS011;38101;53.126;6.878;2023-03-29T06:08:01;15.52;;;10.02;;
52102;SDS011;38101;53.126;6.878;2023-03-29T06:10:27;14.60;;;10.05;;
52102;SDS011;38101;53.126;6.878;2023-03-29T06:12:53;13.88;;;9.68;;
52102;SDS011;38101;53.126;6.878;2023-03-29T06:15:19;15.30;;;10.02;;
52102;SDS011;38101;53.126;6.878;2023-03-29T06:17:45;14.98;;;9.80;;
52102;SDS011;38101;53.126;6.878;2023-03-29T06:20:11;14.35;;;10.18;;
52102;SDS011;38101;53.126;6.878;2023-03-29T06:22:38;15.25;;;10.38;;
52102;SDS011;38101;53.126;6.878;2023-03-29T06:25:05;16.63;;;10.32;;
52102;SDS011;38101;53.126;6.878;2023-03-29T06:27:33;15.02;;;10.65;;
52102;SDS011;38101;53.126;6.878;2023-03-29T06:30:00;16.35;;;10.65;;
52102;SDS011;38101;53.126;6.878;2023-03-29T06:32:26;12.63;;;9.35;;
52102;SDS011;38101;53.126;6.878;2023-03-29T06:34:52;15.82;;;10.50;;
52102;SDS011;38101;53.126;6.878;2023-03-29T06:37:18;15.98;;;10.68;;
52102;SDS011;38101;53.126;6.878;2023-03-29T06:39:45;15.32;;;9.65;;
52102;SDS011;38101;53.126;6.878;2023-03-29T06:42:17;14.45;;;10.02;;
52102;SDS011;38101;53.126;6.878;2023-03-29T06:44:44;14.55;;;10.18;;
52102;SDS011;38101;53.126;6.878;2023-03-29T06:47:11;14.30;;;10.10;;
52102;SDS011;38101;53.126;6.878;2023-03-29T06:49:37;13.90;;;9.93;;
52102;SDS011;38101;53.126;6.878;2023-03-29T06:52:03;15.45;;;10.35;;
52102;SDS011;38101;53.126;6.878;2023-03-29T06:54:29;17.02;;;11.05;;
52102;SDS011;38101;53.126;6.878;2023-03-29T06:56:55;14.43;;;10.40;;
52102;SDS011;38101;53.126;6.878;2023-03-29T06:59:23;15.20;;;10.32;;
52102;SDS011;38101;53.126;6.878;2023-03-29T07:01:49;14.43;;;10.25;;
52102;SDS011;38101;53.126;6.878;2023-03-29T07:04:18;13.95;;;10.65;;
52102;SDS011;38101;53.126;6.878;2023-03-29T07:06:44;14.48;;;10.70;;
52102;SDS011;38101;53.126;6.878;2023-03-29T07:09:15;15.32;;;10.70;;
52102;SDS011;38101;53.126;6.878;2023-03-29T07:11:43;13.55;;;10.05;;
52102;SDS011;38101;53.126;6.878;2023-03-29T07:14:10;14.93;;;10.00;;
52102;SDS011;38101;53.126;6.878;2023-03-29T07:16:36;13.95;;;10.80;;
52102;SDS011;38101;53.126;6.878;2023-03-29T07:19:03;12.95;;;10.57;;
52102;SDS011;38101;53.126;6.878;2023-03-29T07:21:29;15.27;;;10.20;;
52102;SDS011;38101;53.126;6.878;2023-03-29T07:23:55;13.38;;;9.95;;
52102;SDS011;38101;53.126;6.878;2023-03-29T07:26:22;13.65;;;10.00;;
52102;SDS011;38101;53.126;6.878;2023-03-29T07:28:49;12.27;;;9.55;;
52102;SDS011;38101;53.126;6.878;2023-03-29T07:31:15;15.85;;;10.18;;
52102;SDS011;38101;53.126;6.878;2023-03-29T07:33:41;12.55;;;9.85;;
52102;SDS011;38101;53.126;6.878;2023-03-29T07:36:08;13.57;;;9.95;;
52102;SDS011;38101;53.126;6.878;2023-03-29T07:38:35;15.35;;;10.77;;
52102;SDS011;38101;53.126;6.878;2023-03-29T07:41:02;13.18;;;9.75;;
52102;SDS011;38101;53.126;6.878;2023-03-29T07:43:29;12.50;;;9.27;;
52102;SDS011;38101;53.126;6.878;2023-03-29T07:45:55;13.35;;;9.93;;
52102;SDS011;38101;53.126;6.878;2023-03-29T07:48:25;11.73;;;8.98;;
52102;SDS011;38101;53.126;6.878;2023-03-29T07:50:51;13.30;;;9.45;;
52102;SDS011;38101;53.126;6.878;2023-03-29T07:53:17;13.55;;;9.80;;
52102;SDS011;38101;53.126;6.878;2023-03-29T07:55:42;12.30;;;8.80;;
52102;SDS011;38101;53.126;6.878;2023-03-29T07:58:14;12.50;;;9.18;;
52102;SDS011;38101;53.126;6.878;2023-03-29T08:00:40;12.57;;;9.38;;
52102;SDS011;38101;53.126;6.878;2023-03-29T08:03:09;14.88;;;9.07;;
52102;SDS011;38101;53.126;6.878;2023-03-29T08:05:35;11.85;;;9.05;;
52102;SDS011;38101;53.126;6.878;2023-03-29T08:08:01;13.07;;;9.77;;
52102;SDS011;38101;53.126;6.878;2023-03-29T08:10:27;11.48;;;9.20;;
52102;SDS011;38101;53.126;6.878;2023-03-29T08:12:53;10.80;;;9.05;;
52102;SDS011;38101;53.126;6.878;2023-03-29T08:15:19;13.43;;;8.95;;
52102;SDS011;38101;53.126;6.878;2023-03-29T08:17:44;11.65;;;8.60;;
52102;SDS011;38101;53.126;6.878;2023-03-29T08:20:11;13.30;;;8.98;;
52102;SDS011;38101;53.126;6.878;2023-03-29T08:22:39;13.32;;;8.40;;
52102;SDS011;38101;53.126;6.878;2023-03-29T08:25:05;12.13;;;8.82;;
52102;SDS011;38101;53.126;6.878;2023-03-29T08:27:31;12.77;;;8.23;;
52102;SDS011;38101;53.126;6.878;2023-03-29T08:29:57;11.98;;;8.52;;
52102;SDS011;38101;53.126;6.878;2023-03-29T08:32:23;12.48;;;8.05;;
52102;SDS011;38101;53.126;6.878;2023-03-29T08:34:49;11.50;;;8.32;;
52102;SDS011;38101;53.126;6.878;2023-03-29T08:37:14;12.27;;;9.02;;
52102;SDS011;38101;53.126;6.878;2023-03-29T08:39:41;12.30;;;8.23;;
52102;SDS011;38101;53.126;6.878;2023-03-29T08:42:23;11.50;;;7.57;;
52102;SDS011;38101;53.126;6.878;2023-03-29T08:45:20;10.68;;;7.65;;
52102;SDS011;38101;53.126;6.878;2023-03-29T08:47:59;10.10;;;7.75;;
52102;SDS011;38101;53.126;6.878;2023-03-29T08:50:37;11.45;;;8.25;;
52102;SDS011;38101;53.126;6.878;2023-03-29T08:53:28;11.32;;;8.63;;
52102;SDS011;38101;53.126;6.878;2023-03-29T08:56:25;12.07;;;8.18;;
52102;SDS011;38101;53.126;6.878;2023-03-29T08:58:53;10.98;;;8.30;;
52102;SDS011;38101;53.126;6.878;2023-03-29T09:01:21;9.95;;;7.60;;
52102;SDS011;38101;53.126;6.878;2023-03-29T09:04:05;10.20;;;7.68;;
52102;SDS011;38101;53.126;6.878;2023-03-29T09:06:40;11.27;;;7.30;;
52102;SDS011;38101;53.126;6.878;2023-03-29T09:09:11;10.02;;;7.72;;
52102;SDS011;38101;53.126;6.878;2023-03-29T09:11:49;10.52;;;7.70;;
52102;SDS011;38101;53.126;6.878;2023-03-29T09:14:49;9.82;;;7.60;;
52102;SDS011;38101;53.126;6.878;2023-03-29T09:20:32;8.90;;;7.15;;
52102;SDS011;38101;53.126;6.878;2023-03-29T09:26:15;12.68;;;7.53;;
52102;SDS011;38101;53.126;6.878;2023-03-29T09:31:30;10.63;;;7.82;;
52102;SDS011;38101;53.126;6.878;2023-03-29T09:34:03;11.05;;;7.93;;
52102;SDS011;38101;53.126;6.878;2023-03-29T09:39:13;11.52;;;7.22;;
52102;SDS011;38101;53.126;6.878;2023-03-29T09:41:45;11.18;;;7.20;;
52102;SDS011;38101;53.126;6.878;2023-03-29T09:44:21;11.88;;;8.02;;
52102;SDS011;38101;53.126;6.878;2023-03-29T09:46:57;13.60;;;8.63;;
52102;SDS011;38101;53.126;6.878;2023-03-29T09:49:32;12.25;;;8.15;;
52102;SDS011;38101;53.126;6.878;2023-03-29T09:52:03;14.73;;;7.93;;
52102;SDS011;38101;53.126;6.878;2023-03-29T09:54:33;14.40;;;8.48;;
52102;SDS011;38101;53.126;6.878;2023-03-29T09:56:58;13.80;;;9.05;;
52102;SDS011;38101;53.126;6.878;2023-03-29T09:59:25;11.77;;;8.32;;
52102;SDS011;38101;53.126;6.878;2023-03-29T10:01:50;10.77;;;8.02;;
52102;SDS011;38101;53.126;6.878;2023-03-29T10:04:17;19.75;;;9.82;;
52102;SDS011;38101;53.126;6.878;2023-03-29T10:06:46;13.48;;;9.00;;
52102;SDS011;38101;53.126;6.878;2023-03-29T10:09:23;13.27;;;8.68;;
52102;SDS011;38101;53.126;6.878;2023-03-29T10:11:51;12.57;;;8.30;;
52102;SDS011;38101;53.126;6.878;2023-03-29T10:17:03;10.75;;;8.30;;
52102;SDS011;38101;53.126;6.878;2023-03-29T10:19:31;12.38;;;8.15;;
52102;SDS011;38101;53.126;6.878;2023-03-29T10:22:15;14.63;;;8.68;;
52102;SDS011;38101;53.126;6.878;2023-03-29T10:24:53;13.70;;;8.75;;
52102;SDS011;38101;53.126;6.878;2023-03-29T10:27:22;14.48;;;8.57;;
52102;SDS011;38101;53.126;6.878;2023-03-29T10:29:50;14.25;;;8.73;;
52102;SDS011;38101;53.126;6.878;2023-03-29T10:37:49;12.65;;;8.73;;
52102;SDS011;38101;53.126;6.878;2023-03-29T10:40:21;12.10;;;9.18;;
52102;SDS011;38101;53.126;6.878;2023-03-29T10:42:50;11.60;;;8.90;;
52102;SDS011;38101;53.126;6.878;2023-03-29T10:45:26;14.45;;;9.25;;
52102;SDS011;38101;53.126;6.878;2023-03-29T10:47:58;13.35;;;9.50;;
52102;SDS011;38101;53.126;6.878;2023-03-29T10:50:24;14.35;;;9.25;;
52102;SDS011;38101;53.126;6.878;2023-03-29T10:52:56;13.05;;;9.07;;
52102;SDS011;38101;53.126;6.878;2023-03-29T10:55:22;15.07;;;9.95;;
52102;SDS011;38101;53.126;6.878;2023-03-29T10:58:05;14.48;;;9.55;;
52102;SDS011;38101;53.126;6.878;2023-03-29T11:00:46;14.52;;;9.57;;
52102;SDS011;38101;53.126;6.878;2023-03-29T11:03:29;15.13;;;9.73;;
52102;SDS011;38101;53.126;6.878;2023-03-29T11:06:11;18.67;;;10.00;;
52102;SDS011;38101;53.126;6.878;2023-03-29T11:08:55;16.40;;;9.60;;
52102;SDS011;38101;53.126;6.878;2023-03-29T11:25:20;14.52;;;9.77;;
52102;SDS011;38101;53.126;6.878;2023-03-29T11:28:03;14.18;;;9.98;;
52102;SDS011;38101;53.126;6.878;2023-03-29T11:33:46;11.95;;;9.02;;
52102;SDS011;38101;53.126;6.878;2023-03-29T11:42:17;13.40;;;9.40;;
52102;SDS011;38101;53.126;6.878;2023-03-29T11:45:05;13.27;;;9.13;;
52102;SDS011;38101;53.126;6.878;2023-03-29T11:47:37;14.25;;;9.63;;
52102;SDS011;38101;53.126;6.878;2023-03-29T11:53:11;12.07;;;8.98;;
52102;SDS011;38101;53.126;6.878;2023-03-29T11:55:45;15.00;;;9.77;;
52102;SDS011;38101;53.126;6.878;2023-03-29T11:58:15;13.32;;;10.05;;
52102;SDS011;38101;53.126;6.878;2023-03-29T12:00:47;13.27;;;9.60;;
52102;SDS011;38101;53.126;6.878;2023-03-29T12:06:19;11.40;;;8.77;;
52102;SDS011;38101;53.126;6.878;2023-03-29T12:08:56;11.85;;;8.90;;
52102;SDS011;38101;53.126;6.878;2023-03-29T12:11:53;13.80;;;9.80;;
52102;SDS011;38101;53.126;6.878;2023-03-29T12:14:29;14.88;;;9.70;;
52102;SDS011;38101;53.126;6.878;2023-03-29T12:17:08;11.40;;;8.82;;
52102;SDS011;38101;53.126;6.878;2023-03-29T12:22:21;12.17;;;9.07;;
52102;SDS011;38101;53.126;6.878;2023-03-29T12:24:47;10.80;;;8.80;;
52102;SDS011;38101;53.126;6.878;2023-03-29T12:38:12;11.00;;;9.07;;
52102;SDS011;38101;53.126;6.878;2023-03-29T12:40:45;10.95;;;8.00;;
52102;SDS011;38101;53.126;6.878;2023-03-29T12:43:21;10.30;;;7.93;;
52102;SDS011;38101;53.126;6.878;2023-03-29T12:45:52;9.88;;;8.15;;
52102;SDS011;38101;53.126;6.878;2023-03-29T12:48:26;11.95;;;8.70;;
52102;SDS011;38101;53.126;6.878;2023-03-29T12:51:02;11.98;;;7.65;;
52102;SDS011;38101;53.126;6.878;2023-03-29T12:59:03;11.32;;;7.25;;
52102;SDS011;38101;53.126;6.878;2023-03-29T13:01:35;10.05;;;6.75;;
52102;SDS011;38101;53.126;6.878;2023-03-29T13:04:19;9.85;;;6.85;;
52102;SDS011;38101;53.126;6.878;2023-03-29T13:15:01;10.00;;;7.30;;
52102;SDS011;38101;53.126;6.878;2023-03-29T13:39:52;10.98;;;6.95;;
52102;SDS011;38101;53.126;6.878;2023-03-29T13:42:22;8.45;;;6.18;;
52102;SDS011;38101;53.126;6.878;2023-03-29T13:44:50;7.38;;;6.30;;
52102;SDS011;38101;53.126;6.878;2023-03-29T13:49:48;8.80;;;6.40;;
52102;SDS011;38101;53.126;6.878;2023-03-29T13:52:27;10.05;;;6.50;;
52102;SDS011;38101;53.126;6.878;2023-03-29T13:57:37;10.13;;;7.05;;
52102;SDS011;38101;53.126;6.878;2023-03-29T14:00:15;9.27;;;6.20;;
52102;SDS011;38101;53.126;6.878;2023-03-29T14:02:47;10.77;;;6.72;;
52102;SDS011;38101;53.126;6.878;2023-03-29T14:05:24;9.38;;;6.90;;
52102;SDS011;38101;53.126;6.878;2023-03-29T14:07:56;12.18;;;6.60;;
52102;SDS011;38101;53.126;6.878;2023-03-29T14:10:43;9.48;;;6.47;;
52102;SDS011;38101;53.126;6.878;2023-03-29T14:13:11;8.98;;;6.78;;
52102;SDS011;38101;53.126;6.878;2023-03-29T14:15:47;9.35;;;6.25;;
52102;SDS011;38101;53.126;6.878;2023-03-29T14:18:15;10.43;;;6.72;;
52102;SDS011;38101;53.126;6.878;2023-03-29T14:20:44;11.40;;;6.60;;
52102;SDS011;38101;53.126;6.878;2023-03-29T14:23:14;10.25;;;6.85;;
52102;SDS011;38101;53.126;6.878;2023-03-29T14:25:44;8.52;;;6.50;;
52102;SDS011;38101;53.126;6.878;2023-03-29T14:28:21;9.85;;;7.10;;
52102;SDS011;38101;53.126;6.878;2023-03-29T14:30:51;11.88;;;6.93;;
52102;SDS011;38101;53.126;6.878;2023-03-29T14:33:27;8.10;;;7.13;;
52102;SDS011;38101;53.126;6.878;2023-03-29T14:35:57;9.57;;;6.65;;
52102;SDS011;38101;53.126;6.878;2023-03-29T14:38:24;12.00;;;6.85;;
52102;SDS011;38101;53.126;6.878;2023-03-29T14:40:51;9.35;;;6.82;;
52102;SDS011;38101;53.126;6.878;2023-03-29T14:43:19;10.45;;;7.13;;
52102;SDS011;38101;53.126;6.878;2023-03-29T14:45:51;11.60;;;7.43;;
52102;SDS011;38101;53.126;6.878;2023-03-29T14:48:17;9.07;;;6.88;;
52102;SDS011;38101;53.126;6.878;2023-03-29T14:50:43;12.40;;;7.45;;
52102;SDS011;38101;53.126;6.878;2023-03-29T14:53:20;10.05;;;7.88;;
52102;SDS011;38101;53.126;6.878;2023-03-29T14:55:48;9.57;;;7.40;;
52102;SDS011;38101;53.126;6.878;2023-03-29T14:58:23;11.65;;;7.60;;
52102;SDS011;38101;53.126;6.878;2023-03-29T15:00:52;11.10;;;7.38;;
52102;SDS011;38101;53.126;6.878;2023-03-29T15:03:18;12.90;;;8.25;;
52102;SDS011;38101;53.126;6.878;2023-03-29T15:05:52;9.95;;;7.18;;
52102;SDS011;38101;53.126;6.878;2023-03-29T15:08:33;10.18;;;7.45;;
52102;SDS011;38101;53.126;6.878;2023-03-29T15:11:02;12.50;;;7.53;;
52102;SDS011;38101;53.126;6.878;2023-03-29T15:13:38;11.55;;;8.00;;
52102;SDS011;38101;53.126;6.878;2023-03-29T15:16:06;10.23;;;6.85;;
52102;SDS011;38101;53.126;6.878;2023-03-29T15:18:33;10.63;;;8.60;;
52102;SDS011;38101;53.126;6.878;2023-03-29T15:21:04;10.75;;;7.63;;
52102;SDS011;38101;53.126;6.878;2023-03-29T15:23:39;10.73;;;7.38;;
52102;SDS011;38101;53.126;6.878;2023-03-29T15:26:19;8.85;;;7.40;;
52102;SDS011;38101;53.126;6.878;2023-03-29T15:31:32;11.90;;;7.45;;
52102;SDS011;38101;53.126;6.878;2023-03-29T15:36:29;11.05;;;8.40;;
52102;SDS011;38101;53.126;6.878;2023-03-29T15:38:55;9.57;;;7.82;;
52102;SDS011;38101;53.126;6.878;2023-03-29T15:41:22;9.73;;;7.85;;
52102;SDS011;38101;53.126;6.878;2023-03-29T15:43:48;9.98;;;7.85;;
52102;SDS011;38101;53.126;6.878;2023-03-29T15:46:13;9.27;;;7.85;;
52102;SDS011;38101;53.126;6.878;2023-03-29T15:48:40;11.68;;;8.98;;
52102;SDS011;38101;53.126;6.878;2023-03-29T15:51:10;14.82;;;8.43;;
52102;SDS011;38101;53.126;6.878;2023-03-29T15:53:39;12.13;;;9.02;;
52102;SDS011;38101;53.126;6.878;2023-03-29T15:56:05;11.52;;;8.10;;
52102;SDS011;38101;53.126;6.878;2023-03-29T15:58:34;12.63;;;8.45;;
52102;SDS011;38101;53.126;6.878;2023-03-29T16:01:05;12.15;;;8.80;;
52102;SDS011;38101;53.126;6.878;2023-03-29T16:03:39;10.75;;;8.38;;
52102;SDS011;38101;53.126;6.878;2023-03-29T16:06:08;11.07;;;8.30;;
52102;SDS011;38101;53.126;6.878;2023-03-29T16:08:37;10.30;;;8.00;;
52102;SDS011;38101;53.126;6.878;2023-03-29T16:11:03;10.05;;;8.35;;
52102;SDS011;38101;53.126;6.878;2023-03-29T16:13:30;12.15;;;9.38;;
52102;SDS011;38101;53.126;6.878;2023-03-29T16:15:56;11.98;;;9.43;;
52102;SDS011;38101;53.126;6.878;2023-03-29T16:18:22;13.00;;;10.70;;
52102;SDS011;38101;53.126;6.878;2023-03-29T16:20:48;11.65;;;9.23;;
52102;SDS011;38101;53.126;6.878;2023-03-29T16:23:13;12.13;;;9.23;;
52102;SDS011;38101;53.126;6.878;2023-03-29T16:25:39;14.23;;;9.65;;
52102;SDS011;38101;53.126;6.878;2023-03-29T16:28:06;12.48;;;9.18;;
52102;SDS011;38101;53.126;6.878;2023-03-29T16:30:33;11.43;;;9.68;;
52102;SDS011;38101;53.126;6.878;2023-03-29T16:33:01;16.80;;;12.95;;
52102;SDS011;38101;53.126;6.878;2023-03-29T16:35:31;14.43;;;11.60;;
52102;SDS011;38101;53.126;6.878;2023-03-29T16:37:58;12.93;;;9.98;;
52102;SDS011;38101;53.126;6.878;2023-03-29T16:40:24;10.98;;;9.20;;
52102;SDS011;38101;53.126;6.878;2023-03-29T16:42:50;12.25;;;9.90;;
52102;SDS011;38101;53.126;6.878;2023-03-29T16:45:16;14.68;;;13.05;;
52102;SDS011;38101;53.126;6.878;2023-03-29T16:47:43;11.95;;;10.70;;
52102;SDS011;38101;53.126;6.878;2023-03-29T16:50:12;14.23;;;12.68;;
52102;SDS011;38101;53.126;6.878;2023-03-29T16:52:40;11.57;;;9.68;;
52102;SDS011;38101;53.126;6.878;2023-03-29T16:55:06;13.25;;;9.35;;